sensor_id;sensor_type;location;lat;lon;timestamp;temperature;humidity
32027;DHT22;18543;50.848;4.596;2022-08-20T00:01:15;21.90;86.80
32027;DHT22;18543;50.848;4.596;2022-08-20T00:03:44;21.90;85.90
32027;DHT22;18543;50.848;4.596;2022-08-20T00:06:21;21.80;86.10
32027;DHT22;18543;50.848;4.596;2022-08-20T00:08:49;21.80;86.30
32027;DHT22;18543;50.848;4.596;2022-08-20T00:11:23;21.80;86.00
32027;DHT22;18543;50.848;4.596;2022-08-20T00:13:57;21.70;85.70
32027;DHT22;18543;50.848;4.596;2022-08-20T00:16:28;21.70;85.60
32027;DHT22;18543;50.848;4.596;2022-08-20T00:18:59;21.70;85.80
32027;DHT22;18543;50.848;4.596;2022-08-20T00:21:27;21.70;85.60
32027;DHT22;18543;50.848;4.596;2022-08-20T00:23:57;21.70;85.20
32027;DHT22;18543;50.848;4.596;2022-08-20T00:26:27;21.60;85.50
32027;DHT22;18543;50.848;4.596;2022-08-20T00:28:54;21.60;85.50
32027;DHT22;18543;50.848;4.596;2022-08-20T00:31:23;21.50;85.60
32027;DHT22;18543;50.848;4.596;2022-08-20T00:33:51;21.50;85.40
32027;DHT22;18543;50.848;4.596;2022-08-20T00:36:21;21.40;85.10
32027;DHT22;18543;50.848;4.596;2022-08-20T00:38:58;21.40;84.90
32027;DHT22;18543;50.848;4.596;2022-08-20T00:41:26;21.30;84.70
32027;DHT22;18543;50.848;4.596;2022-08-20T00:44:14;21.30;84.70
32027;DHT22;18543;50.848;4.596;2022-08-20T00:46:42;21.20;84.70
32027;DHT22;18543;50.848;4.596;2022-08-20T00:49:23;21.20;84.60
32027;DHT22;18543;50.848;4.596;2022-08-20T00:54:38;21.10;84.80
32027;DHT22;18543;50.848;4.596;2022-08-20T00:57:28;21.10;84.70
32027;DHT22;18543;50.848;4.596;2022-08-20T01:00:29;21.00;84.40
32027;DHT22;18543;50.848;4.596;2022-08-20T01:02:58;21.00;84.80
32027;DHT22;18543;50.848;4.596;2022-08-20T01:05:27;20.90;84.90
32027;DHT22;18543;50.848;4.596;2022-08-20T01:07:55;20.90;84.80
32027;DHT22;18543;50.848;4.596;2022-08-20T01:10:31;20.90;84.90
32027;DHT22;18543;50.848;4.596;2022-08-20T01:13:07;20.90;85.00
32027;DHT22;18543;50.848;4.596;2022-08-20T01:15:38;20.90;84.60
32027;DHT22;18543;50.848;4.596;2022-08-20T01:18:14;20.80;84.60
32027;DHT22;18543;50.848;4.596;2022-08-20T01:20:50;20.80;84.30
32027;DHT22;18543;50.848;4.596;2022-08-20T01:26:30;20.60;83.80
32027;DHT22;18543;50.848;4.596;2022-08-20T01:29:08;20.60;83.70
32027;DHT22;18543;50.848;4.596;2022-08-20T01:31:38;20.60;83.80
32027;DHT22;18543;50.848;4.596;2022-08-20T01:34:09;20.50;83.30
32027;DHT22;18543;50.848;4.596;2022-08-20T01:36:43;20.50;83.50
32027;DHT22;18543;50.848;4.596;2022-08-20T01:39:16;20.40;83.70
32027;DHT22;18543;50.848;4.596;2022-08-20T01:44:40;20.30;83.70
32027;DHT22;18543;50.848;4.596;2022-08-20T01:47:16;20.20;83.50
32027;DHT22;18543;50.848;4.596;2022-08-20T01:49:53;20.20;83.10
32027;DHT22;18543;50.848;4.596;2022-08-20T01:52:32;20.20;82.90
32027;DHT22;18543;50.848;4.596;2022-08-20T01:55:01;20.10;83.10
32027;DHT22;18543;50.848;4.596;2022-08-20T01:57:29;20.10;83.10
32027;DHT22;18543;50.848;4.596;2022-08-20T01:59:56;20.00;83.10
32027;DHT22;18543;50.848;4.596;2022-08-20T02:02:24;20.00;83.00
32027;DHT22;18543;50.848;4.596;2022-08-20T02:04:52;20.00;82.90
32027;DHT22;18543;50.848;4.596;2022-08-20T02:07:21;19.90;82.90
32027;DHT22;18543;50.848;4.596;2022-08-20T02:09:49;19.90;82.90
32027;DHT22;18543;50.848;4.596;2022-08-20T02:12:17;19.90;82.80
32027;DHT22;18543;50.848;4.596;2022-08-20T02:14:50;19.80;82.30
32027;DHT22;18543;50.848;4.596;2022-08-20T02:17:20;19.80;82.30
32027;DHT22;18543;50.848;4.596;2022-08-20T02:22:36;19.70;82.80
32027;DHT22;18543;50.848;4.596;2022-08-20T02:25:12;19.60;82.70
32027;DHT22;18543;50.848;4.596;2022-08-20T02:27:42;19.60;82.30
32027;DHT22;18543;50.848;4.596;2022-08-20T02:30:15;19.50;82.00
32027;DHT22;18543;50.848;4.596;2022-08-20T02:32:55;19.50;82.30
32027;DHT22;18543;50.848;4.596;2022-08-20T02:35:23;19.40;82.30
32027;DHT22;18543;50.848;4.596;2022-08-20T02:37:52;19.40;82.30
32027;DHT22;18543;50.848;4.596;2022-08-20T02:40:23;19.40;81.70
32027;DHT22;18543;50.848;4.596;2022-08-20T02:42:59;19.30;82.40
32027;DHT22;18543;50.848;4.596;2022-08-20T02:45:29;19.30;81.90
32027;DHT22;18543;50.848;4.596;2022-08-20T02:48:05;19.20;82.20
32027;DHT22;18543;50.848;4.596;2022-08-20T02:50:33;19.20;82.40
32027;DHT22;18543;50.848;4.596;2022-08-20T02:53:00;19.10;81.70
32027;DHT22;18543;50.848;4.596;2022-08-20T02:55:28;19.10;82.10
32027;DHT22;18543;50.848;4.596;2022-08-20T02:57:56;19.10;82.00
32027;DHT22;18543;50.848;4.596;2022-08-20T03:00:27;19.00;82.70
32027;DHT22;18543;50.848;4.596;2022-08-20T03:03:04;19.00;81.70
32027;DHT22;18543;50.848;4.596;2022-08-20T03:05:31;19.00;82.00
32027;DHT22;18543;50.848;4.596;2022-08-20T03:07:58;18.90;81.80
32027;DHT22;18543;50.848;4.596;2022-08-20T03:10:29;18.90;81.60
32027;DHT22;18543;50.848;4.596;2022-08-20T03:12:57;18.90;81.90
32027;DHT22;18543;50.848;4.596;2022-08-20T03:15:27;18.80;82.00
32027;DHT22;18543;50.848;4.596;2022-08-20T03:17:53;18.80;82.20
32027;DHT22;18543;50.848;4.596;2022-08-20T03:20:22;18.70;81.70
32027;DHT22;18543;50.848;4.596;2022-08-20T03:22:50;18.70;82.10
32027;DHT22;18543;50.848;4.596;2022-08-20T03:25:17;18.70;82.60
32027;DHT22;18543;50.848;4.596;2022-08-20T03:27:45;18.70;82.90
32027;DHT22;18543;50.848;4.596;2022-08-20T03:30:19;18.70;83.00
32027;DHT22;18543;50.848;4.596;2022-08-20T03:32:46;18.70;83.30
32027;DHT22;18543;50.848;4.596;2022-08-20T03:35:16;18.80;83.70
32027;DHT22;18543;50.848;4.596;2022-08-20T03:37:43;18.70;83.30
32027;DHT22;18543;50.848;4.596;2022-08-20T03:40:30;18.70;83.40
32027;DHT22;18543;50.848;4.596;2022-08-20T03:43:04;18.70;83.80
32027;DHT22;18543;50.848;4.596;2022-08-20T03:45:32;18.80;83.60
32027;DHT22;18543;50.848;4.596;2022-08-20T03:47:59;18.70;83.70
32027;DHT22;18543;50.848;4.596;2022-08-20T03:50:28;18.80;84.10
32027;DHT22;18543;50.848;4.596;2022-08-20T03:52:55;18.80;84.20
32027;DHT22;18543;50.848;4.596;2022-08-20T03:55:23;18.80;84.20
32027;DHT22;18543;50.848;4.596;2022-08-20T03:57:53;18.80;84.10
32027;DHT22;18543;50.848;4.596;2022-08-20T04:00:28;18.80;84.60
32027;DHT22;18543;50.848;4.596;2022-08-20T04:02:57;18.80;84.60
32027;DHT22;18543;50.848;4.596;2022-08-20T04:05:26;18.80;84.40
32027;DHT22;18543;50.848;4.596;2022-08-20T04:07:58;18.90;85.20
32027;DHT22;18543;50.848;4.596;2022-08-20T04:10:30;18.90;85.40
32027;DHT22;18543;50.848;4.596;2022-08-20T04:12:57;18.90;85.40
32027;DHT22;18543;50.848;4.596;2022-08-20T04:15:25;19.00;86.00
32027;DHT22;18543;50.848;4.596;2022-08-20T04:17:54;19.00;86.10
32027;DHT22;18543;50.848;4.596;2022-08-20T04:20:23;19.00;86.10
32027;DHT22;18543;50.848;4.596;2022-08-20T04:22:53;19.00;85.90
32027;DHT22;18543;50.848;4.596;2022-08-20T04:25:28;19.00;85.10
32027;DHT22;18543;50.848;4.596;2022-08-20T04:28:04;19.00;85.00
32027;DHT22;18543;50.848;4.596;2022-08-20T04:30:34;18.90;84.40
32027;DHT22;18543;50.848;4.596;2022-08-20T04:33:01;18.90;84.40
32027;DHT22;18543;50.848;4.596;2022-08-20T04:35:29;18.90;84.60
32027;DHT22;18543;50.848;4.596;2022-08-20T04:38:04;18.80;84.30
32027;DHT22;18543;50.848;4.596;2022-08-20T04:40:33;18.80;83.60
32027;DHT22;18543;50.848;4.596;2022-08-20T04:43:20;18.70;83.70
32027;DHT22;18543;50.848;4.596;2022-08-20T04:45:52;18.60;83.40
32027;DHT22;18543;50.848;4.596;2022-08-20T04:48:20;18.60;83.40
32027;DHT22;18543;50.848;4.596;2022-08-20T04:50:50;18.50;83.10
32027;DHT22;18543;50.848;4.596;2022-08-20T04:53:23;18.40;83.00
32027;DHT22;18543;50.848;4.596;2022-08-20T04:55:55;18.40;83.00
32027;DHT22;18543;50.848;4.596;2022-08-20T04:58:27;18.40;83.40
32027;DHT22;18543;50.848;4.596;2022-08-20T05:01:01;18.40;83.10
32027;DHT22;18543;50.848;4.596;2022-08-20T05:03:30;18.40;83.70
32027;DHT22;18543;50.848;4.596;2022-08-20T05:05:57;18.30;83.90
32027;DHT22;18543;50.848;4.596;2022-08-20T05:08:28;18.40;83.80
32027;DHT22;18543;50.848;4.596;2022-08-20T05:10:56;18.30;84.50
32027;DHT22;18543;50.848;4.596;2022-08-20T05:13:43;18.40;84.90
32027;DHT22;18543;50.848;4.596;2022-08-20T05:16:10;18.40;84.90
32027;DHT22;18543;50.848;4.596;2022-08-20T05:18:38;18.40;85.10
32027;DHT22;18543;50.848;4.596;2022-08-20T05:21:05;18.40;84.80
32027;DHT22;18543;50.848;4.596;2022-08-20T05:23:34;18.40;84.40
32027;DHT22;18543;50.848;4.596;2022-08-20T05:26:02;18.40;84.40
32027;DHT22;18543;50.848;4.596;2022-08-20T05:28:36;18.40;84.70
32027;DHT22;18543;50.848;4.596;2022-08-20T05:31:27;18.40;84.60
32027;DHT22;18543;50.848;4.596;2022-08-20T05:34:09;18.40;85.20
32027;DHT22;18543;50.848;4.596;2022-08-20T05:36:40;18.40;85.50
32027;DHT22;18543;50.848;4.596;2022-08-20T05:39:08;18.40;85.50
32027;DHT22;18543;50.848;4.596;2022-08-20T05:41:36;18.40;85.20
32027;DHT22;18543;50.848;4.596;2022-08-20T05:44:04;18.50;85.40
32027;DHT22;18543;50.848;4.596;2022-08-20T05:46:36;18.50;85.00
32027;DHT22;18543;50.848;4.596;2022-08-20T05:49:07;18.50;85.50
32027;DHT22;18543;50.848;4.596;2022-08-20T05:51:35;18.50;85.90
32027;DHT22;18543;50.848;4.596;2022-08-20T05:54:04;18.50;86.00
32027;DHT22;18543;50.848;4.596;2022-08-20T05:56:31;18.50;86.20
32027;DHT22;18543;50.848;4.596;2022-08-20T05:59:03;18.50;86.60
32027;DHT22;18543;50.848;4.596;2022-08-20T06:01:32;18.60;86.20
32027;DHT22;18543;50.848;4.596;2022-08-20T06:04:00;18.70;86.90
32027;DHT22;18543;50.848;4.596;2022-08-20T06:06:48;18.70;86.70
32027;DHT22;18543;50.848;4.596;2022-08-20T06:09:22;18.80;87.10
32027;DHT22;18543;50.848;4.596;2022-08-20T06:11:59;18.90;87.00
32027;DHT22;18543;50.848;4.596;2022-08-20T06:14:26;19.00;88.50
32027;DHT22;18543;50.848;4.596;2022-08-20T06:16:53;19.10;87.50
32027;DHT22;18543;50.848;4.596;2022-08-20T06:19:25;19.10;87.00
32027;DHT22;18543;50.848;4.596;2022-08-20T06:21:52;19.20;87.40
32027;DHT22;18543;50.848;4.596;2022-08-20T06:24:20;19.20;87.50
32027;DHT22;18543;50.848;4.596;2022-08-20T06:26:53;19.30;87.90
32027;DHT22;18543;50.848;4.596;2022-08-20T06:29:20;19.40;87.90
32027;DHT22;18543;50.848;4.596;2022-08-20T06:31:47;19.40;88.10
32027;DHT22;18543;50.848;4.596;2022-08-20T06:34:14;19.40;86.80
32027;DHT22;18543;50.848;4.596;2022-08-20T06:36:42;19.40;87.50
32027;DHT22;18543;50.848;4.596;2022-08-20T06:39:13;19.50;87.90
32027;DHT22;18543;50.848;4.596;2022-08-20T06:41:41;19.50;88.00
32027;DHT22;18543;50.848;4.596;2022-08-20T06:44:08;19.60;88.10
32027;DHT22;18543;50.848;4.596;2022-08-20T06:46:37;19.60;87.90
32027;DHT22;18543;50.848;4.596;2022-08-20T06:49:06;19.60;87.60
32027;DHT22;18543;50.848;4.596;2022-08-20T06:51:34;19.70;86.20
32027;DHT22;18543;50.848;4.596;2022-08-20T06:54:05;19.70;87.50
32027;DHT22;18543;50.848;4.596;2022-08-20T06:56:32;19.80;87.90
32027;DHT22;18543;50.848;4.596;2022-08-20T06:59:02;19.80;87.60
32027;DHT22;18543;50.848;4.596;2022-08-20T07:01:29;19.90;86.90
32027;DHT22;18543;50.848;4.596;2022-08-20T07:03:56;19.90;87.20
32027;DHT22;18543;50.848;4.596;2022-08-20T07:06:25;19.90;86.30
32027;DHT22;18543;50.848;4.596;2022-08-20T07:08:53;19.90;85.00
32027;DHT22;18543;50.848;4.596;2022-08-20T07:11:21;20.00;85.20
32027;DHT22;18543;50.848;4.596;2022-08-20T07:13:55;20.00;84.80
32027;DHT22;18543;50.848;4.596;2022-08-20T07:16:22;20.00;86.20
32027;DHT22;18543;50.848;4.596;2022-08-20T07:18:49;20.10;86.10
32027;DHT22;18543;50.848;4.596;2022-08-20T07:21:16;20.20;86.80
32027;DHT22;18543;50.848;4.596;2022-08-20T07:23:43;20.20;85.40
32027;DHT22;18543;50.848;4.596;2022-08-20T07:26:13;20.20;85.60
32027;DHT22;18543;50.848;4.596;2022-08-20T07:28:40;20.30;86.10
32027;DHT22;18543;50.848;4.596;2022-08-20T07:31:07;20.30;85.50
32027;DHT22;18543;50.848;4.596;2022-08-20T07:33:56;20.40;85.70
32027;DHT22;18543;50.848;4.596;2022-08-20T07:36:25;20.40;84.10
32027;DHT22;18543;50.848;4.596;2022-08-20T07:38:52;20.50;84.30
32027;DHT22;18543;50.848;4.596;2022-08-20T07:41:20;20.50;85.10
32027;DHT22;18543;50.848;4.596;2022-08-20T07:43:47;20.60;84.50
32027;DHT22;18543;50.848;4.596;2022-08-20T07:46:16;20.70;84.00
32027;DHT22;18543;50.848;4.596;2022-08-20T07:48:47;20.80;84.00
32027;DHT22;18543;50.848;4.596;2022-08-20T07:51:20;20.80;82.80
32027;DHT22;18543;50.848;4.596;2022-08-20T07:53:49;20.90;82.90
32027;DHT22;18543;50.848;4.596;2022-08-20T07:56:19;20.90;83.20
32027;DHT22;18543;50.848;4.596;2022-08-20T07:58:50;21.00;82.90
32027;DHT22;18543;50.848;4.596;2022-08-20T08:01:25;21.00;82.50
32027;DHT22;18543;50.848;4.596;2022-08-20T08:03:54;21.10;82.20
32027;DHT22;18543;50.848;4.596;2022-08-20T08:06:24;21.10;82.10
32027;DHT22;18543;50.848;4.596;2022-08-20T08:09:08;21.10;83.00
32027;DHT22;18543;50.848;4.596;2022-08-20T08:11:42;21.20;82.50
32027;DHT22;18543;50.848;4.596;2022-08-20T08:14:13;21.20;82.40
32027;DHT22;18543;50.848;4.596;2022-08-20T08:16:43;21.20;82.30
32027;DHT22;18543;50.848;4.596;2022-08-20T08:19:11;21.20;82.90
32027;DHT22;18543;50.848;4.596;2022-08-20T08:21:42;21.20;83.10
32027;DHT22;18543;50.848;4.596;2022-08-20T08:24:10;21.20;82.80
32027;DHT22;18543;50.848;4.596;2022-08-20T08:26:47;21.20;82.70
32027;DHT22;18543;50.848;4.596;2022-08-20T08:29:15;21.30;82.20
32027;DHT22;18543;50.848;4.596;2022-08-20T08:31:42;21.30;82.10
32027;DHT22;18543;50.848;4.596;2022-08-20T08:34:09;21.30;81.30
32027;DHT22;18543;50.848;4.596;2022-08-20T08:36:37;21.30;83.20
32027;DHT22;18543;50.848;4.596;2022-08-20T08:39:05;21.30;82.70
32027;DHT22;18543;50.848;4.596;2022-08-20T08:41:40;21.30;81.90
32027;DHT22;18543;50.848;4.596;2022-08-20T08:44:24;21.30;82.60
32027;DHT22;18543;50.848;4.596;2022-08-20T08:46:56;21.40;82.70
32027;DHT22;18543;50.848;4.596;2022-08-20T08:49:32;21.40;81.00
32027;DHT22;18543;50.848;4.596;2022-08-20T08:52:23;21.40;80.70
32027;DHT22;18543;50.848;4.596;2022-08-20T08:54:54;21.40;80.90
32027;DHT22;18543;50.848;4.596;2022-08-20T08:57:22;21.40;80.60
32027;DHT22;18543;50.848;4.596;2022-08-20T08:59:59;21.50;80.70
32027;DHT22;18543;50.848;4.596;2022-08-20T09:02:31;21.50;79.80
32027;DHT22;18543;50.848;4.596;2022-08-20T09:05:09;21.50;80.30
32027;DHT22;18543;50.848;4.596;2022-08-20T09:07:39;21.50;79.90
32027;DHT22;18543;50.848;4.596;2022-08-20T09:10:07;21.50;78.80
32027;DHT22;18543;50.848;4.596;2022-08-20T09:12:36;21.50;79.40
32027;DHT22;18543;50.848;4.596;2022-08-20T09:15:04;21.50;79.50
32027;DHT22;18543;50.848;4.596;2022-08-20T09:17:31;21.50;78.60
32027;DHT22;18543;50.848;4.596;2022-08-20T09:19:58;21.50;78.20
32027;DHT22;18543;50.848;4.596;2022-08-20T09:22:26;21.60;78.60
32027;DHT22;18543;50.848;4.596;2022-08-20T09:24:53;21.60;78.90
32027;DHT22;18543;50.848;4.596;2022-08-20T09:27:20;21.60;78.40
32027;DHT22;18543;50.848;4.596;2022-08-20T09:29:47;21.70;77.80
32027;DHT22;18543;50.848;4.596;2022-08-20T09:32:22;21.80;78.90
32027;DHT22;18543;50.848;4.596;2022-08-20T09:34:53;21.80;76.70
32027;DHT22;18543;50.848;4.596;2022-08-20T09:37:26;21.80;76.80
32027;DHT22;18543;50.848;4.596;2022-08-20T09:39:59;21.90;76.50
32027;DHT22;18543;50.848;4.596;2022-08-20T09:42:33;21.90;76.40
32027;DHT22;18543;50.848;4.596;2022-08-20T09:45:08;21.90;76.50
32027;DHT22;18543;50.848;4.596;2022-08-20T09:47:42;21.90;75.50
32027;DHT22;18543;50.848;4.596;2022-08-20T09:50:31;22.10;76.10
32027;DHT22;18543;50.848;4.596;2022-08-20T09:53:03;22.10;75.50
32027;DHT22;18543;50.848;4.596;2022-08-20T09:55:39;22.00;72.80
32027;DHT22;18543;50.848;4.596;2022-08-20T10:00:47;22.20;74.50
32027;DHT22;18543;50.848;4.596;2022-08-20T10:03:15;22.20;71.80
32027;DHT22;18543;50.848;4.596;2022-08-20T10:05:45;22.20;73.80
32027;DHT22;18543;50.848;4.596;2022-08-20T10:08:12;22.20;73.00
32027;DHT22;18543;50.848;4.596;2022-08-20T10:10:39;22.30;73.40
32027;DHT22;18543;50.848;4.596;2022-08-20T10:13:06;22.30;72.80
32027;DHT22;18543;50.848;4.596;2022-08-20T10:15:38;22.30;71.70
32027;DHT22;18543;50.848;4.596;2022-08-20T10:18:07;22.30;69.20
32027;DHT22;18543;50.848;4.596;2022-08-20T10:20:37;22.30;70.80
32027;DHT22;18543;50.848;4.596;2022-08-20T10:23:04;22.30;68.90
32027;DHT22;18543;50.848;4.596;2022-08-20T10:25:31;22.30;70.50
32027;DHT22;18543;50.848;4.596;2022-08-20T10:27:58;22.30;70.40
32027;DHT22;18543;50.848;4.596;2022-08-20T10:30:28;22.30;70.50
32027;DHT22;18543;50.848;4.596;2022-08-20T10:32:54;22.30;69.90
32027;DHT22;18543;50.848;4.596;2022-08-20T10:35:24;22.30;70.40
32027;DHT22;18543;50.848;4.596;2022-08-20T10:37:51;22.40;69.60
32027;DHT22;18543;50.848;4.596;2022-08-20T10:40:18;22.30;69.70
32027;DHT22;18543;50.848;4.596;2022-08-20T10:42:48;22.40;70.10
32027;DHT22;18543;50.848;4.596;2022-08-20T10:45:15;22.40;69.30
32027;DHT22;18543;50.848;4.596;2022-08-20T10:47:42;22.30;67.80
32027;DHT22;18543;50.848;4.596;2022-08-20T10:50:13;22.30;68.10
32027;DHT22;18543;50.848;4.596;2022-08-20T10:52:41;22.30;65.10
32027;DHT22;18543;50.848;4.596;2022-08-20T10:55:09;22.30;68.90
32027;DHT22;18543;50.848;4.596;2022-08-20T10:57:38;22.30;69.00
32027;DHT22;18543;50.848;4.596;2022-08-20T11:00:09;22.40;68.30
32027;DHT22;18543;50.848;4.596;2022-08-20T11:02:37;22.40;68.90
32027;DHT22;18543;50.848;4.596;2022-08-20T11:05:04;22.40;68.00
32027;DHT22;18543;50.848;4.596;2022-08-20T11:07:37;22.40;67.50
32027;DHT22;18543;50.848;4.596;2022-08-20T11:10:24;22.50;68.40
32027;DHT22;18543;50.848;4.596;2022-08-20T11:12:53;22.40;68.50
32027;DHT22;18543;50.848;4.596;2022-08-20T11:15:22;22.50;66.50
32027;DHT22;18543;50.848;4.596;2022-08-20T11:17:49;22.40;66.40
32027;DHT22;18543;50.848;4.596;2022-08-20T11:20:18;22.50;66.50
32027;DHT22;18543;50.848;4.596;2022-08-20T11:22:46;22.60;66.30
32027;DHT22;18543;50.848;4.596;2022-08-20T11:25:15;22.50;66.10
32027;DHT22;18543;50.848;4.596;2022-08-20T11:27:45;22.60;65.30
32027;DHT22;18543;50.848;4.596;2022-08-20T11:30:21;22.60;64.70
32027;DHT22;18543;50.848;4.596;2022-08-20T11:32:48;22.60;64.90
32027;DHT22;18543;50.848;4.596;2022-08-20T11:35:15;22.70;65.60
32027;DHT22;18543;50.848;4.596;2022-08-20T11:38:03;22.70;65.80
32027;DHT22;18543;50.848;4.596;2022-08-20T11:40:30;22.80;65.90
32027;DHT22;18543;50.848;4.596;2022-08-20T11:42:57;22.80;65.20
32027;DHT22;18543;50.848;4.596;2022-08-20T11:45:45;22.80;64.50
32027;DHT22;18543;50.848;4.596;2022-08-20T11:48:12;22.80;65.40
32027;DHT22;18543;50.848;4.596;2022-08-20T11:50:39;22.90;65.80
32027;DHT22;18543;50.848;4.596;2022-08-20T11:53:11;22.90;65.80
32027;DHT22;18543;50.848;4.596;2022-08-20T11:55:40;22.90;65.80
32027;DHT22;18543;50.848;4.596;2022-08-20T11:58:09;22.90;65.30
32027;DHT22;18543;50.848;4.596;2022-08-20T12:00:36;23.00;65.50
32027;DHT22;18543;50.848;4.596;2022-08-20T12:03:05;23.00;65.50
32027;DHT22;18543;50.848;4.596;2022-08-20T12:05:36;23.10;65.80
32027;DHT22;18543;50.848;4.596;2022-08-20T12:08:06;23.20;66.00
32027;DHT22;18543;50.848;4.596;2022-08-20T12:10:53;23.20;65.40
32027;DHT22;18543;50.848;4.596;2022-08-20T12:13:32;23.30;66.00
32027;DHT22;18543;50.848;4.596;2022-08-20T12:16:15;23.40;65.60
32027;DHT22;18543;50.848;4.596;2022-08-20T12:18:43;23.50;65.80
32027;DHT22;18543;50.848;4.596;2022-08-20T12:21:10;23.40;66.10
32027;DHT22;18543;50.848;4.596;2022-08-20T12:23:39;23.50;66.40
32027;DHT22;18543;50.848;4.596;2022-08-20T12:26:06;23.50;66.10
32027;DHT22;18543;50.848;4.596;2022-08-20T12:28:34;23.50;65.30
32027;DHT22;18543;50.848;4.596;2022-08-20T12:31:03;23.50;63.60
32027;DHT22;18543;50.848;4.596;2022-08-20T12:33:30;23.40;62.10
32027;DHT22;18543;50.848;4.596;2022-08-20T12:35:58;23.40;63.90
32027;DHT22;18543;50.848;4.596;2022-08-20T12:38:25;23.40;64.60
32027;DHT22;18543;50.848;4.596;2022-08-20T12:40:52;23.40;64.80
32027;DHT22;18543;50.848;4.596;2022-08-20T12:43:20;23.40;63.30
32027;DHT22;18543;50.848;4.596;2022-08-20T12:45:50;23.30;61.60
32027;DHT22;18543;50.848;4.596;2022-08-20T12:48:17;23.30;63.10
32027;DHT22;18543;50.848;4.596;2022-08-20T12:50:46;23.40;63.90
32027;DHT22;18543;50.848;4.596;2022-08-20T12:53:15;23.50;64.30
32027;DHT22;18543;50.848;4.596;2022-08-20T12:55:45;23.60;63.60
32027;DHT22;18543;50.848;4.596;2022-08-20T12:58:13;23.70;63.10
32027;DHT22;18543;50.848;4.596;2022-08-20T13:00:42;23.80;63.30
32027;DHT22;18543;50.848;4.596;2022-08-20T13:03:16;23.90;63.10
32027;DHT22;18543;50.848;4.596;2022-08-20T13:05:43;23.90;61.90
32027;DHT22;18543;50.848;4.596;2022-08-20T13:08:11;23.90;58.30
32027;DHT22;18543;50.848;4.596;2022-08-20T13:10:42;23.90;59.90
32027;DHT22;18543;50.848;4.596;2022-08-20T13:13:15;24.00;55.80
32027;DHT22;18543;50.848;4.596;2022-08-20T13:15:47;24.00;56.90
32027;DHT22;18543;50.848;4.596;2022-08-20T13:18:15;24.00;58.30
32027;DHT22;18543;50.848;4.596;2022-08-20T13:20:42;24.00;59.10
32027;DHT22;18543;50.848;4.596;2022-08-20T13:23:09;24.00;57.40
32027;DHT22;18543;50.848;4.596;2022-08-20T13:25:36;24.10;59.50
32027;DHT22;18543;50.848;4.596;2022-08-20T13:28:04;24.00;57.00
32027;DHT22;18543;50.848;4.596;2022-08-20T13:30:33;24.10;59.60
32027;DHT22;18543;50.848;4.596;2022-08-20T13:33:00;24.10;59.80
32027;DHT22;18543;50.848;4.596;2022-08-20T13:35:27;24.20;59.80
32027;DHT22;18543;50.848;4.596;2022-08-20T13:37:54;24.20;57.80
32027;DHT22;18543;50.848;4.596;2022-08-20T13:40:21;24.10;55.60
32027;DHT22;18543;50.848;4.596;2022-08-20T13:42:51;24.20;57.40
32027;DHT22;18543;50.848;4.596;2022-08-20T13:45:18;24.20;58.80
32027;DHT22;18543;50.848;4.596;2022-08-20T13:47:45;24.30;59.10
32027;DHT22;18543;50.848;4.596;2022-08-20T13:50:15;24.40;59.20
32027;DHT22;18543;50.848;4.596;2022-08-20T13:52:43;24.40;59.30
32027;DHT22;18543;50.848;4.596;2022-08-20T13:55:16;24.40;58.30
32027;DHT22;18543;50.848;4.596;2022-08-20T13:57:46;24.40;59.80
32027;DHT22;18543;50.848;4.596;2022-08-20T14:00:18;24.60;59.10
32027;DHT22;18543;50.848;4.596;2022-08-20T14:02:57;24.50;59.70
32027;DHT22;18543;50.848;4.596;2022-08-20T14:05:24;24.50;60.00
32027;DHT22;18543;50.848;4.596;2022-08-20T14:07:53;24.60;60.10
32027;DHT22;18543;50.848;4.596;2022-08-20T14:10:24;24.60;60.50
32027;DHT22;18543;50.848;4.596;2022-08-20T14:12:57;24.60;59.40
32027;DHT22;18543;50.848;4.596;2022-08-20T14:15:24;24.60;58.50
32027;DHT22;18543;50.848;4.596;2022-08-20T14:17:53;24.60;59.70
32027;DHT22;18543;50.848;4.596;2022-08-20T14:20:25;24.50;59.20
32027;DHT22;18543;50.848;4.596;2022-08-20T14:22:55;24.60;60.00
32027;DHT22;18543;50.848;4.596;2022-08-20T14:25:23;24.70;59.90
32027;DHT22;18543;50.848;4.596;2022-08-20T14:27:51;24.80;57.30
32027;DHT22;18543;50.848;4.596;2022-08-20T14:30:24;24.90;59.40
32027;DHT22;18543;50.848;4.596;2022-08-20T14:32:51;25.00;59.80
32027;DHT22;18543;50.848;4.596;2022-08-20T14:35:19;25.10;59.40
32027;DHT22;18543;50.848;4.596;2022-08-20T14:37:51;25.20;59.90
32027;DHT22;18543;50.848;4.596;2022-08-20T14:40:21;25.20;57.60
32027;DHT22;18543;50.848;4.596;2022-08-20T14:42:49;25.40;59.00
32027;DHT22;18543;50.848;4.596;2022-08-20T14:45:18;25.50;59.50
32027;DHT22;18543;50.848;4.596;2022-08-20T14:47:51;25.60;59.50
32027;DHT22;18543;50.848;4.596;2022-08-20T14:52:51;25.80;58.00
32027;DHT22;18543;50.848;4.596;2022-08-20T14:55:19;25.90;58.90
32027;DHT22;18543;50.848;4.596;2022-08-20T14:57:48;25.90;59.20
32027;DHT22;18543;50.848;4.596;2022-08-20T15:00:20;25.90;58.80
32027;DHT22;18543;50.848;4.596;2022-08-20T15:02:48;25.90;58.90
32027;DHT22;18543;50.848;4.596;2022-08-20T15:05:16;25.90;59.00
32027;DHT22;18543;50.848;4.596;2022-08-20T15:07:47;25.80;59.20
32027;DHT22;18543;50.848;4.596;2022-08-20T15:10:26;25.80;58.50
32027;DHT22;18543;50.848;4.596;2022-08-20T15:12:54;25.90;53.40
32027;DHT22;18543;50.848;4.596;2022-08-20T15:15:24;25.90;56.70
32027;DHT22;18543;50.848;4.596;2022-08-20T15:17:56;25.80;53.00
32027;DHT22;18543;50.848;4.596;2022-08-20T15:20:28;25.80;57.30
32027;DHT22;18543;50.848;4.596;2022-08-20T15:22:58;25.90;54.80
32027;DHT22;18543;50.848;4.596;2022-08-20T15:25:28;26.00;58.00
32027;DHT22;18543;50.848;4.596;2022-08-20T15:28:05;26.00;55.70
32027;DHT22;18543;50.848;4.596;2022-08-20T15:30:32;25.90;54.80
32027;DHT22;18543;50.848;4.596;2022-08-20T15:32:59;25.80;53.10
32027;DHT22;18543;50.848;4.596;2022-08-20T15:35:31;25.60;52.70
32027;DHT22;18543;50.848;4.596;2022-08-20T15:38:01;25.60;53.60
32027;DHT22;18543;50.848;4.596;2022-08-20T15:40:29;25.60;56.30
32027;DHT22;18543;50.848;4.596;2022-08-20T15:42:58;25.80;57.60
32027;DHT22;18543;50.848;4.596;2022-08-20T15:45:26;25.90;52.70
32027;DHT22;18543;50.848;4.596;2022-08-20T15:48:16;25.80;52.20
32027;DHT22;18543;50.848;4.596;2022-08-20T16:07:05;25.90;55.30
32027;DHT22;18543;50.848;4.596;2022-08-20T16:09:45;26.00;56.80
32027;DHT22;18543;50.848;4.596;2022-08-20T16:12:27;26.10;58.10
32027;DHT22;18543;50.848;4.596;2022-08-20T16:15:00;26.10;58.40
32027;DHT22;18543;50.848;4.596;2022-08-20T16:17:45;25.90;54.00
32027;DHT22;18543;50.848;4.596;2022-08-20T16:20:23;25.70;57.10
32027;DHT22;18543;50.848;4.596;2022-08-20T16:23:01;25.60;58.20
32027;DHT22;18543;50.848;4.596;2022-08-20T16:25:47;25.40;58.80